sensor_id;sensor_type;location;lat;lon;timestamp;P1;durP1;ratioP1;P2;durP2;ratioP2
39680;SDS011;26327;42.550;23.120;2024-03-07T00:00:07;14.43;;;8.90;;
39680;SDS011;26327;42.550;23.120;2024-03-07T00:02:42;18.63;;;10.82;;
39680;SDS011;26327;42.550;23.120;2024-03-07T00:05:09;17.50;;;10.50;;
39680;SDS011;26327;42.550;23.120;2024-03-07T00:07:35;17.90;;;10.32;;
39680;SDS011;26327;42.550;23.120;2024-03-07T00:10:02;14.50;;;8.77;;
39680;SDS011;26327;42.550;23.120;2024-03-07T00:12:28;17.15;;;9.70;;
39680;SDS011;26327;42.550;23.120;2024-03-07T00:14:53;14.15;;;8.25;;
39680;SDS011;26327;42.550;23.120;2024-03-07T00:17:19;15.52;;;8.27;;
39680;SDS011;26327;42.550;23.120;2024-03-07T00:19:44;10.15;;;6.75;;
39680;SDS011;26327;42.550;23.120;2024-03-07T00:22:10;13.80;;;7.70;;
39680;SDS011;26327;42.550;23.120;2024-03-07T00:24:35;11.30;;;6.97;;
39680;SDS011;26327;42.550;23.120;2024-03-07T00:27:02;8.38;;;5.93;;
39680;SDS011;26327;42.550;23.120;2024-03-07T00:29:28;9.60;;;5.80;;
39680;SDS011;26327;42.550;23.120;2024-03-07T00:31:54;9.27;;;6.05;;
39680;SDS011;26327;42.550;23.120;2024-03-07T00:34:19;11.98;;;5.45;;
39680;SDS011;26327;42.550;23.120;2024-03-07T00:36:46;8.15;;;5.68;;
39680;SDS011;26327;42.550;23.120;2024-03-07T00:39:11;8.52;;;5.38;;
39680;SDS011;26327;42.550;23.120;2024-03-07T00:41:40;7.70;;;5.32;;
39680;SDS011;26327;42.550;23.120;2024-03-07T00:44:09;12.52;;;6.15;;
39680;SDS011;26327;42.550;23.120;2024-03-07T00:46:35;8.50;;;5.68;;
39680;SDS011;26327;42.550;23.120;2024-03-07T00:49:01;8.30;;;5.55;;
39680;SDS011;26327;42.550;23.120;2024-03-07T00:51:27;8.27;;;5.07;;
39680;SDS011;26327;42.550;23.120;2024-03-07T00:53:53;8.68;;;5.05;;
39680;SDS011;26327;42.550;23.120;2024-03-07T00:56:18;9.25;;;4.47;;
39680;SDS011;26327;42.550;23.120;2024-03-07T00:58:46;8.40;;;4.57;;
39680;SDS011;26327;42.550;23.120;2024-03-07T01:01:11;13.18;;;5.57;;
39680;SDS011;26327;42.550;23.120;2024-03-07T01:03:37;7.35;;;4.90;;
39680;SDS011;26327;42.550;23.120;2024-03-07T01:06:02;8.02;;;4.10;;
39680;SDS011;26327;42.550;23.120;2024-03-07T01:08:28;13.52;;;5.40;;
39680;SDS011;26327;42.550;23.120;2024-03-07T01:10:57;6.68;;;3.72;;
39680;SDS011;26327;42.550;23.120;2024-03-07T01:13:22;9.32;;;4.57;;
39680;SDS011;26327;42.550;23.120;2024-03-07T01:15:49;10.77;;;5.13;;
39680;SDS011;26327;42.550;23.120;2024-03-07T01:18:15;8.38;;;3.67;;
39680;SDS011;26327;42.550;23.120;2024-03-07T01:20:42;11.98;;;5.22;;
39680;SDS011;26327;42.550;23.120;2024-03-07T01:23:07;8.45;;;4.18;;
39680;SDS011;26327;42.550;23.120;2024-03-07T01:25:33;9.38;;;4.15;;
39680;SDS011;26327;42.550;23.120;2024-03-07T01:27:59;9.25;;;3.47;;
39680;SDS011;26327;42.550;23.120;2024-03-07T01:30:25;4.63;;;2.40;;
39680;SDS011;26327;42.550;23.120;2024-03-07T01:32:53;4.60;;;2.13;;
39680;SDS011;26327;42.550;23.120;2024-03-07T01:35:18;5.40;;;2.10;;
39680;SDS011;26327;42.550;23.120;2024-03-07T01:37:44;3.25;;;1.67;;
39680;SDS011;26327;42.550;23.120;2024-03-07T01:40:09;3.30;;;1.40;;
39680;SDS011;26327;42.550;23.120;2024-03-07T01:42:36;3.08;;;1.70;;
39680;SDS011;26327;42.550;23.120;2024-03-07T01:45:02;3.03;;;1.50;;
39680;SDS011;26327;42.550;23.120;2024-03-07T01:47:27;3.80;;;1.63;;
39680;SDS011;26327;42.550;23.120;2024-03-07T01:49:53;5.78;;;2.35;;
39680;SDS011;26327;42.550;23.120;2024-03-07T01:52:18;7.65;;;2.72;;
39680;SDS011;26327;42.550;23.120;2024-03-07T01:54:44;7.13;;;2.72;;
39680;SDS011;26327;42.550;23.120;2024-03-07T01:57:11;10.98;;;3.95;;
39680;SDS011;26327;42.550;23.120;2024-03-07T01:59:38;6.57;;;2.35;;
39680;SDS011;26327;42.550;23.120;2024-03-07T02:02:04;3.85;;;1.90;;
39680;SDS011;26327;42.550;23.120;2024-03-07T02:04:30;4.70;;;2.30;;
39680;SDS011;26327;42.550;23.120;2024-03-07T02:06:55;3.85;;;1.60;;
39680;SDS011;26327;42.550;23.120;2024-03-07T02:09:22;5.03;;;1.58;;
39680;SDS011;26327;42.550;23.120;2024-03-07T02:11:47;3.58;;;1.30;;
39680;SDS011;26327;42.550;23.120;2024-03-07T02:14:14;7.57;;;2.50;;
39680;SDS011;26327;42.550;23.120;2024-03-07T02:16:39;4.47;;;2.17;;
39680;SDS011;26327;42.550;23.120;2024-03-07T02:19:05;5.25;;;2.33;;
39680;SDS011;26327;42.550;23.120;2024-03-07T02:21:31;1.73;;;0.90;;
39680;SDS011;26327;42.550;23.120;2024-03-07T02:23:58;3.83;;;2.00;;
39680;SDS011;26327;42.550;23.120;2024-03-07T02:26:23;5.95;;;2.00;;
39680;SDS011;26327;42.550;23.120;2024-03-07T02:28:48;6.72;;;2.17;;
39680;SDS011;26327;42.550;23.120;2024-03-07T02:31:14;3.35;;;1.70;;
39680;SDS011;26327;42.550;23.120;2024-03-07T02:33:39;6.47;;;2.22;;
39680;SDS011;26327;42.550;23.120;2024-03-07T02:36:06;8.10;;;2.78;;
39680;SDS011;26327;42.550;23.120;2024-03-07T02:38:31;4.55;;;1.92;;
39680;SDS011;26327;42.550;23.120;2024-03-07T02:40:57;2.50;;;1.40;;
39680;SDS011;26327;42.550;23.120;2024-03-07T02:43:23;4.00;;;1.50;;
39680;SDS011;26327;42.550;23.120;2024-03-07T02:45:49;2.50;;;1.30;;
39680;SDS011;26327;42.550;23.120;2024-03-07T02:48:15;3.92;;;1.45;;
39680;SDS011;26327;42.550;23.120;2024-03-07T02:50:40;2.80;;;1.38;;
39680;SDS011;26327;42.550;23.120;2024-03-07T02:53:05;3.10;;;1.23;;
39680;SDS011;26327;42.550;23.120;2024-03-07T02:55:34;4.78;;;1.58;;
39680;SDS011;26327;42.550;23.120;2024-03-07T02:57:59;4.22;;;1.52;;
39680;SDS011;26327;42.550;23.120;2024-03-07T03:00:25;5.88;;;1.60;;
39680;SDS011;26327;42.550;23.120;2024-03-07T03:02:57;5.20;;;2.20;;
39680;SDS011;26327;42.550;23.120;2024-03-07T03:05:23;4.03;;;1.52;;
39680;SDS011;26327;42.550;23.120;2024-03-07T03:07:49;5.47;;;2.00;;
39680;SDS011;26327;42.550;23.120;2024-03-07T03:10:19;4.93;;;1.65;;
39680;SDS011;26327;42.550;23.120;2024-03-07T03:12:51;3.75;;;1.73;;
39680;SDS011;26327;42.550;23.120;2024-03-07T03:15:18;6.07;;;2.45;;
39680;SDS011;26327;42.550;23.120;2024-03-07T03:17:45;6.32;;;2.75;;
39680;SDS011;26327;42.550;23.120;2024-03-07T03:20:11;11.85;;;4.80;;
39680;SDS011;26327;42.550;23.120;2024-03-07T03:22:49;12.10;;;4.57;;
39680;SDS011;26327;42.550;23.120;2024-03-07T03:25:15;7.97;;;3.30;;
39680;SDS011;26327;42.550;23.120;2024-03-07T03:27:40;13.48;;;5.75;;
39680;SDS011;26327;42.550;23.120;2024-03-07T03:30:06;9.93;;;4.22;;
39680;SDS011;26327;42.550;23.120;2024-03-07T03:32:32;11.50;;;4.40;;
39680;SDS011;26327;42.550;23.120;2024-03-07T03:34:57;4.20;;;1.95;;
39680;SDS011;26327;42.550;23.120;2024-03-07T03:37:23;7.85;;;4.05;;
39680;SDS011;26327;42.550;23.120;2024-03-07T03:39:48;8.65;;;4.38;;
39680;SDS011;26327;42.550;23.120;2024-03-07T03:42:14;3.28;;;1.60;;
39680;SDS011;26327;42.550;23.120;2024-03-07T03:44:40;3.13;;;1.58;;
39680;SDS011;26327;42.550;23.120;2024-03-07T03:47:05;6.85;;;3.42;;
39680;SDS011;26327;42.550;23.120;2024-03-07T03:49:31;2.83;;;1.58;;
39680;SDS011;26327;42.550;23.120;2024-03-07T03:51:56;3.22;;;1.20;;
39680;SDS011;26327;42.550;23.120;2024-03-07T03:54:22;2.72;;;1.10;;
39680;SDS011;26327;42.550;23.120;2024-03-07T03:56:48;8.57;;;4.53;;
39680;SDS011;26327;42.550;23.120;2024-03-07T03:59:13;11.10;;;4.25;;
39680;SDS011;26327;42.550;23.120;2024-03-07T04:01:38;7.40;;;3.25;;
39680;SDS011;26327;42.550;23.120;2024-03-07T04:04:04;7.10;;;3.58;;
39680;SDS011;26327;42.550;23.120;2024-03-07T04:06:30;4.47;;;1.88;;
39680;SDS011;26327;42.550;23.120;2024-03-07T04:08:55;9.95;;;3.63;;
39680;SDS011;26327;42.550;23.120;2024-03-07T04:11:21;14.02;;;4.95;;
39680;SDS011;26327;42.550;23.120;2024-03-07T04:13:46;12.32;;;4.75;;
39680;SDS011;26327;42.550;23.120;2024-03-07T04:16:12;6.63;;;3.03;;
39680;SDS011;26327;42.550;23.120;2024-03-07T04:18:39;6.05;;;3.15;;
39680;SDS011;26327;42.550;23.120;2024-03-07T04:21:04;13.57;;;6.10;;
39680;SDS011;26327;42.550;23.120;2024-03-07T04:23:30;16.90;;;7.95;;
39680;SDS011;26327;42.550;23.120;2024-03-07T04:25:55;14.88;;;6.85;;
39680;SDS011;26327;42.550;23.120;2024-03-07T04:28:21;14.80;;;8.43;;
39680;SDS011;26327;42.550;23.120;2024-03-07T04:30:47;11.45;;;4.97;;
39680;SDS011;26327;42.550;23.120;2024-03-07T04:33:14;10.73;;;5.50;;
39680;SDS011;26327;42.550;23.120;2024-03-07T04:35:39;7.88;;;3.67;;
39680;SDS011;26327;42.550;23.120;2024-03-07T04:38:05;6.18;;;3.20;;
39680;SDS011;26327;42.550;23.120;2024-03-07T04:40:36;7.88;;;2.35;;
39680;SDS011;26327;42.550;23.120;2024-03-07T04:43:02;7.28;;;3.65;;
39680;SDS011;26327;42.550;23.120;2024-03-07T04:45:28;10.10;;;5.10;;
39680;SDS011;26327;42.550;23.120;2024-03-07T04:47:53;5.13;;;2.78;;
39680;SDS011;26327;42.550;23.120;2024-03-07T04:50:19;3.17;;;1.50;;
39680;SDS011;26327;42.550;23.120;2024-03-07T04:52:44;4.95;;;2.22;;
39680;SDS011;26327;42.550;23.120;2024-03-07T04:55:11;3.50;;;1.60;;
39680;SDS011;26327;42.550;23.120;2024-03-07T04:57:37;3.55;;;1.30;;
39680;SDS011;26327;42.550;23.120;2024-03-07T05:00:05;6.40;;;3.22;;
39680;SDS011;26327;42.550;23.120;2024-03-07T05:02:32;5.38;;;2.80;;
39680;SDS011;26327;42.550;23.120;2024-03-07T05:04:57;5.93;;;3.70;;
39680;SDS011;26327;42.550;23.120;2024-03-07T05:07:23;7.90;;;3.63;;
39680;SDS011;26327;42.550;23.120;2024-03-07T05:09:48;10.45;;;5.40;;
39680;SDS011;26327;42.550;23.120;2024-03-07T05:12:13;9.90;;;4.75;;
39680;SDS011;26327;42.550;23.120;2024-03-07T05:14:39;11.52;;;6.43;;
39680;SDS011;26327;42.550;23.120;2024-03-07T05:17:04;13.10;;;7.15;;
39680;SDS011;26327;42.550;23.120;2024-03-07T05:19:32;11.23;;;5.40;;
39680;SDS011;26327;42.550;23.120;2024-03-07T05:21:58;16.55;;;7.00;;
39680;SDS011;26327;42.550;23.120;2024-03-07T05:24:23;9.10;;;5.05;;
39680;SDS011;26327;42.550;23.120;2024-03-07T05:26:49;8.82;;;6.55;;
39680;SDS011;26327;42.550;23.120;2024-03-07T05:29:14;6.97;;;3.83;;
39680;SDS011;26327;42.550;23.120;2024-03-07T05:31:42;5.97;;;3.60;;
39680;SDS011;26327;42.550;23.120;2024-03-07T05:34:14;7.07;;;2.85;;
39680;SDS011;26327;42.550;23.120;2024-03-07T05:36:48;6.72;;;3.80;;
39680;SDS011;26327;42.550;23.120;2024-03-07T05:39:14;7.63;;;3.35;;
39680;SDS011;26327;42.550;23.120;2024-03-07T05:41:41;7.15;;;2.88;;
39680;SDS011;26327;42.550;23.120;2024-03-07T05:44:07;4.65;;;2.85;;
39680;SDS011;26327;42.550;23.120;2024-03-07T05:46:39;9.40;;;5.10;;
39680;SDS011;26327;42.550;23.120;2024-03-07T05:49:13;11.65;;;5.38;;
39680;SDS011;26327;42.550;23.120;2024-03-07T05:51:39;10.80;;;5.55;;
39680;SDS011;26327;42.550;23.120;2024-03-07T05:54:07;13.25;;;6.97;;
39680;SDS011;26327;42.550;23.120;2024-03-07T05:56:33;11.15;;;5.82;;
39680;SDS011;26327;42.550;23.120;2024-03-07T05:59:02;25.75;;;13.90;;
39680;SDS011;26327;42.550;23.120;2024-03-07T06:01:29;31.63;;;18.27;;
39680;SDS011;26327;42.550;23.120;2024-03-07T06:06:25;23.05;;;13.23;;
39680;SDS011;26327;42.550;23.120;2024-03-07T06:08:50;21.73;;;12.25;;
39680;SDS011;26327;42.550;23.120;2024-03-07T06:11:16;24.45;;;11.70;;
39680;SDS011;26327;42.550;23.120;2024-03-07T06:16:11;18.70;;;10.27;;
39680;SDS011;26327;42.550;23.120;2024-03-07T06:18:36;19.00;;;11.13;;
39680;SDS011;26327;42.550;23.120;2024-03-07T06:21:02;14.32;;;7.45;;
39680;SDS011;26327;42.550;23.120;2024-03-07T06:23:29;16.70;;;9.38;;
39680;SDS011;26327;42.550;23.120;2024-03-07T06:25:55;12.75;;;6.95;;
39680;SDS011;26327;42.550;23.120;2024-03-07T06:28:23;14.25;;;8.48;;
39680;SDS011;26327;42.550;23.120;2024-03-07T06:30:49;11.63;;;7.15;;
39680;SDS011;26327;42.550;23.120;2024-03-07T06:33:14;12.05;;;5.72;;
39680;SDS011;26327;42.550;23.120;2024-03-07T06:35:41;9.35;;;5.57;;
39680;SDS011;26327;42.550;23.120;2024-03-07T06:38:10;13.00;;;5.53;;
39680;SDS011;26327;42.550;23.120;2024-03-07T06:40:36;10.68;;;5.82;;
39680;SDS011;26327;42.550;23.120;2024-03-07T06:43:02;9.15;;;4.22;;
39680;SDS011;26327;42.550;23.120;2024-03-07T06:45:37;7.38;;;3.38;;
39680;SDS011;26327;42.550;23.120;2024-03-07T06:48:06;6.95;;;3.03;;
39680;SDS011;26327;42.550;23.120;2024-03-07T06:50:33;8.57;;;3.43;;
39680;SDS011;26327;42.550;23.120;2024-03-07T06:53:04;6.93;;;2.75;;
39680;SDS011;26327;42.550;23.120;2024-03-07T06:55:31;4.00;;;2.30;;
39680;SDS011;26327;42.550;23.120;2024-03-07T06:57:58;4.75;;;2.20;;
39680;SDS011;26327;42.550;23.120;2024-03-07T07:00:25;6.78;;;2.65;;
39680;SDS011;26327;42.550;23.120;2024-03-07T07:02:51;6.90;;;2.40;;
39680;SDS011;26327;42.550;23.120;2024-03-07T07:05:19;4.95;;;2.65;;
39680;SDS011;26327;42.550;23.120;2024-03-07T07:07:45;5.07;;;2.70;;
39680;SDS011;26327;42.550;23.120;2024-03-07T07:10:11;5.53;;;3.08;;
39680;SDS011;26327;42.550;23.120;2024-03-07T07:12:50;5.65;;;2.90;;
39680;SDS011;26327;42.550;23.120;2024-03-07T07:15:17;6.47;;;3.38;;
39680;SDS011;26327;42.550;23.120;2024-03-07T07:17:46;6.75;;;3.05;;
39680;SDS011;26327;42.550;23.120;2024-03-07T07:20:14;6.97;;;3.88;;
39680;SDS011;26327;42.550;23.120;2024-03-07T07:22:40;4.00;;;2.10;;
39680;SDS011;26327;42.550;23.120;2024-03-07T07:25:06;13.73;;;6.75;;
39680;SDS011;26327;42.550;23.120;2024-03-07T07:27:45;25.75;;;13.05;;
39680;SDS011;26327;42.550;23.120;2024-03-07T07:30:11;40.25;;;21.85;;
39680;SDS011;26327;42.550;23.120;2024-03-07T07:32:37;31.60;;;16.40;;
39680;SDS011;26327;42.550;23.120;2024-03-07T07:35:04;15.35;;;8.73;;
39680;SDS011;26327;42.550;23.120;2024-03-07T07:37:36;7.45;;;3.42;;
39680;SDS011;26327;42.550;23.120;2024-03-07T07:40:07;9.05;;;4.95;;
39680;SDS011;26327;42.550;23.120;2024-03-07T07:42:40;18.95;;;10.70;;
39680;SDS011;26327;42.550;23.120;2024-03-07T07:45:10;4.18;;;2.13;;
39680;SDS011;26327;42.550;23.120;2024-03-07T07:47:39;6.23;;;2.27;;
39680;SDS011;26327;42.550;23.120;2024-03-07T07:50:15;3.15;;;1.60;;
39680;SDS011;26327;42.550;23.120;2024-03-07T07:55:15;5.10;;;2.53;;
39680;SDS011;26327;42.550;23.120;2024-03-07T07:57:43;4.60;;;1.40;;
39680;SDS011;26327;42.550;23.120;2024-03-07T08:00:13;4.75;;;1.67;;
39680;SDS011;26327;42.550;23.120;2024-03-07T08:02:50;5.60;;;2.47;;
39680;SDS011;26327;42.550;23.120;2024-03-07T08:05:17;3.58;;;1.92;;
39680;SDS011;26327;42.550;23.120;2024-03-07T08:07:47;7.55;;;3.05;;
39680;SDS011;26327;42.550;23.120;2024-03-07T08:10:13;4.00;;;1.80;;
39680;SDS011;26327;42.550;23.120;2024-03-07T08:12:39;3.50;;;1.83;;
39680;SDS011;26327;42.550;23.120;2024-03-07T08:15:08;5.28;;;1.70;;
39680;SDS011;26327;42.550;23.120;2024-03-07T08:17:34;3.55;;;1.80;;
39680;SDS011;26327;42.550;23.120;2024-03-07T08:19:59;5.35;;;1.90;;
39680;SDS011;26327;42.550;23.120;2024-03-07T08:22:24;6.10;;;2.28;;
39680;SDS011;26327;42.550;23.120;2024-03-07T08:24:51;5.07;;;2.08;;
39680;SDS011;26327;42.550;23.120;2024-03-07T08:27:16;4.88;;;1.85;;
39680;SDS011;26327;42.550;23.120;2024-03-07T08:29:43;3.17;;;1.48;;
39680;SDS011;26327;42.550;23.120;2024-03-07T08:32:08;2.83;;;1.20;;
39680;SDS011;26327;42.550;23.120;2024-03-07T08:34:33;2.95;;;1.70;;
39680;SDS011;26327;42.550;23.120;2024-03-07T08:36:59;2.90;;;1.40;;
39680;SDS011;26327;42.550;23.120;2024-03-07T08:39:24;3.00;;;1.20;;
39680;SDS011;26327;42.550;23.120;2024-03-07T08:41:49;2.63;;;0.90;;
39680;SDS011;26327;42.550;23.120;2024-03-07T08:44:15;4.00;;;1.77;;
39680;SDS011;26327;42.550;23.120;2024-03-07T08:46:40;3.80;;;2.10;;
39680;SDS011;26327;42.550;23.120;2024-03-07T08:49:06;1.67;;;1.00;;
39680;SDS011;26327;42.550;23.120;2024-03-07T08:51:32;2.30;;;0.90;;
39680;SDS011;26327;42.550;23.120;2024-03-07T08:53:57;0.93;;;0.50;;
39680;SDS011;26327;42.550;23.120;2024-03-07T08:56:24;2.88;;;1.42;;
39680;SDS011;26327;42.550;23.120;2024-03-07T08:58:49;2.78;;;1.27;;
39680;SDS011;26327;42.550;23.120;2024-03-07T09:01:14;3.88;;;1.70;;
39680;SDS011;26327;42.550;23.120;2024-03-07T09:03:40;2.95;;;1.15;;
39680;SDS011;26327;42.550;23.120;2024-03-07T09:06:05;2.47;;;1.25;;
39680;SDS011;26327;42.550;23.120;2024-03-07T09:08:31;3.47;;;1.50;;
39680;SDS011;26327;42.550;23.120;2024-03-07T09:10:57;4.80;;;1.05;;
39680;SDS011;26327;42.550;23.120;2024-03-07T09:13:22;3.33;;;1.67;;
39680;SDS011;26327;42.550;23.120;2024-03-07T09:15:48;3.92;;;1.67;;
39680;SDS011;26327;42.550;23.120;2024-03-07T09:18:14;3.80;;;1.08;;
39680;SDS011;26327;42.550;23.120;2024-03-07T09:20:39;4.10;;;0.95;;
39680;SDS011;26327;42.550;23.120;2024-03-07T09:23:05;2.50;;;0.82;;
39680;SDS011;26327;42.550;23.120;2024-03-07T09:25:31;5.18;;;1.00;;
39680;SDS011;26327;42.550;23.120;2024-03-07T09:27:58;3.47;;;1.10;;
39680;SDS011;26327;42.550;23.120;2024-03-07T09:30:25;4.75;;;1.50;;
39680;SDS011;26327;42.550;23.120;2024-03-07T09:32:52;5.50;;;1.80;;
39680;SDS011;26327;42.550;23.120;2024-03-07T09:35:20;7.07;;;1.27;;
39680;SDS011;26327;42.550;23.120;2024-03-07T09:37:46;5.05;;;1.20;;
39680;SDS011;26327;42.550;23.120;2024-03-07T09:40:11;3.70;;;1.50;;
39680;SDS011;26327;42.550;23.120;2024-03-07T09:42:48;4.22;;;1.20;;
39680;SDS011;26327;42.550;23.120;2024-03-07T09:45:17;10.13;;;1.70;;
39680;SDS011;26327;42.550;23.120;2024-03-07T09:47:47;5.15;;;1.70;;
39680;SDS011;26327;42.550;23.120;2024-03-07T09:50:18;2.45;;;0.80;;
39680;SDS011;26327;42.550;23.120;2024-03-07T09:52:46;2.40;;;1.00;;
39680;SDS011;26327;42.550;23.120;2024-03-07T09:55:14;5.07;;;1.60;;
39680;SDS011;26327;42.550;23.120;2024-03-07T09:57:41;4.07;;;1.20;;
39680;SDS011;26327;42.550;23.120;2024-03-07T10:00:07;4.25;;;1.52;;
39680;SDS011;26327;42.550;23.120;2024-03-07T10:02:34;3.88;;;1.38;;
39680;SDS011;26327;42.550;23.120;2024-03-07T10:05:05;5.25;;;2.67;;
39680;SDS011;26327;42.550;23.120;2024-03-07T10:07:35;6.72;;;2.28;;
39680;SDS011;26327;42.550;23.120;2024-03-07T10:10:01;8.60;;;3.63;;
39680;SDS011;26327;42.550;23.120;2024-03-07T10:12:35;26.35;;;11.98;;
39680;SDS011;26327;42.550;23.120;2024-03-07T10:15:03;8.60;;;3.80;;
39680;SDS011;26327;42.550;23.120;2024-03-07T10:17:35;11.55;;;4.68;;
39680;SDS011;26327;42.550;23.120;2024-03-07T10:20:02;8.25;;;3.88;;
39680;SDS011;26327;42.550;23.120;2024-03-07T10:22:27;6.40;;;2.85;;
39680;SDS011;26327;42.550;23.120;2024-03-07T10:24:53;5.47;;;2.60;;
39680;SDS011;26327;42.550;23.120;2024-03-07T10:27:21;9.75;;;1.70;;
39680;SDS011;26327;42.550;23.120;2024-03-07T10:29:47;6.38;;;2.40;;
39680;SDS011;26327;42.550;23.120;2024-03-07T10:32:19;6.40;;;1.90;;
39680;SDS011;26327;42.550;23.120;2024-03-07T10:34:45;6.45;;;1.98;;
39680;SDS011;26327;42.550;23.120;2024-03-07T10:37:12;7.60;;;2.50;;
39680;SDS011;26327;42.550;23.120;2024-03-07T10:39:41;4.78;;;1.45;;
39680;SDS011;26327;42.550;23.120;2024-03-07T10:42:08;3.85;;;1.00;;
39680;SDS011;26327;42.550;23.120;2024-03-07T10:44:50;5.55;;;2.15;;
39680;SDS011;26327;42.550;23.120;2024-03-07T10:47:19;6.35;;;3.22;;
39680;SDS011;26327;42.550;23.120;2024-03-07T10:52:33;6.68;;;3.08;;
39680;SDS011;26327;42.550;23.120;2024-03-07T10:55:12;6.18;;;2.38;;
39680;SDS011;26327;42.550;23.120;2024-03-07T11:00:26;9.68;;;3.55;;
39680;SDS011;26327;42.550;23.120;2024-03-07T11:03:00;10.68;;;5.00;;
39680;SDS011;26327;42.550;23.120;2024-03-07T11:05:27;5.32;;;1.80;;
39680;SDS011;26327;42.550;23.120;2024-03-07T11:08:00;3.00;;;1.30;;
39680;SDS011;26327;42.550;23.120;2024-03-07T11:10:36;13.73;;;5.85;;
39680;SDS011;26327;42.550;23.120;2024-03-07T11:13:11;17.25;;;7.35;;
39680;SDS011;26327;42.550;23.120;2024-03-07T11:15:39;4.65;;;1.17;;
39680;SDS011;26327;42.550;23.120;2024-03-07T11:18:08;6.07;;;2.47;;
39680;SDS011;26327;42.550;23.120;2024-03-07T11:20:36;9.80;;;3.75;;
39680;SDS011;26327;42.550;23.120;2024-03-07T11:23:48;9.35;;;4.68;;
39680;SDS011;26327;42.550;23.120;2024-03-07T11:28:33;2.88;;;1.20;;
39680;SDS011;26327;42.550;23.120;2024-03-07T11:31:09;5.60;;;1.52;;
39680;SDS011;26327;42.550;23.120;2024-03-07T11:33:38;9.77;;;3.72;;
39680;SDS011;26327;42.550;23.120;2024-03-07T11:36:07;6.70;;;2.70;;
39680;SDS011;26327;42.550;23.120;2024-03-07T11:38:34;6.80;;;2.63;;
39680;SDS011;26327;42.550;23.120;2024-03-07T11:41:00;8.88;;;4.55;;
39680;SDS011;26327;42.550;23.120;2024-03-07T11:43:30;6.22;;;2.15;;
39680;SDS011;26327;42.550;23.120;2024-03-07T11:45:56;5.50;;;2.05;;
39680;SDS011;26327;42.550;23.120;2024-03-07T11:48:23;5.25;;;2.67;;
39680;SDS011;26327;42.550;23.120;2024-03-07T11:50:49;9.35;;;4.47;;
39680;SDS011;26327;42.550;23.120;2024-03-07T11:53:15;3.38;;;0.90;;
39680;SDS011;26327;42.550;23.120;2024-03-07T11:55:41;3.85;;;1.45;;
39680;SDS011;26327;42.550;23.120;2024-03-07T11:58:28;3.47;;;0.90;;
39680;SDS011;26327;42.550;23.120;2024-03-07T12:00:56;7.38;;;2.78;;
39680;SDS011;26327;42.550;23.120;2024-03-07T12:03:23;4.35;;;1.60;;
39680;SDS011;26327;42.550;23.120;2024-03-07T12:05:50;5.88;;;2.45;;
39680;SDS011;26327;42.550;23.120;2024-03-07T12:08:17;4.13;;;1.60;;
39680;SDS011;26327;42.550;23.120;2024-03-07T12:10:43;4.82;;;1.67;;
39680;SDS011;26327;42.550;23.120;2024-03-07T12:13:10;6.50;;;2.63;;
39680;SDS011;26327;42.550;23.120;2024-03-07T12:15:36;5.57;;;2.53;;
39680;SDS011;26327;42.550;23.120;2024-03-07T12:18:03;3.25;;;1.65;;
39680;SDS011;26327;42.550;23.120;2024-03-07T12:20:33;3.58;;;1.90;;
39680;SDS011;26327;42.550;23.120;2024-03-07T12:23:00;5.03;;;1.67;;
39680;SDS011;26327;42.550;23.120;2024-03-07T12:25:30;3.55;;;1.52;;
39680;SDS011;26327;42.550;23.120;2024-03-07T12:28:03;6.13;;;1.63;;
39680;SDS011;26327;42.550;23.120;2024-03-07T12:33:21;8.45;;;2.83;;
39680;SDS011;26327;42.550;23.120;2024-03-07T12:35:51;3.97;;;1.50;;
39680;SDS011;26327;42.550;23.120;2024-03-07T12:38:18;4.82;;;1.50;;
39680;SDS011;26327;42.550;23.120;2024-03-07T12:40:45;3.95;;;1.65;;
39680;SDS011;26327;42.550;23.120;2024-03-07T12:43:21;6.00;;;2.00;;
39680;SDS011;26327;42.550;23.120;2024-03-07T12:45:50;7.50;;;2.15;;
39680;SDS011;26327;42.550;23.120;2024-03-07T12:48:20;6.43;;;2.75;;
39680;SDS011;26327;42.550;23.120;2024-03-07T12:50:49;5.80;;;2.78;;
39680;SDS011;26327;42.550;23.120;2024-03-07T12:53:24;6.53;;;2.47;;
39680;SDS011;26327;42.550;23.120;2024-03-07T12:55:54;4.22;;;1.73;;
39680;SDS011;26327;42.550;23.120;2024-03-07T12:58:20;3.20;;;1.33;;
39680;SDS011;26327;42.550;23.120;2024-03-07T13:00:48;4.97;;;1.95;;
39680;SDS011;26327;42.550;23.120;2024-03-07T13:03:13;11.88;;;4.65;;
39680;SDS011;26327;42.550;23.120;2024-03-07T13:05:41;25.45;;;8.70;;
39680;SDS011;26327;42.550;23.120;2024-03-07T13:08:08;13.70;;;6.00;;
39680;SDS011;26327;42.550;23.120;2024-03-07T13:10:36;6.90;;;2.13;;
39680;SDS011;26327;42.550;23.120;2024-03-07T13:13:06;4.25;;;1.58;;
39680;SDS011;26327;42.550;23.120;2024-03-07T13:15:31;3.63;;;1.48;;
39680;SDS011;26327;42.550;23.120;2024-03-07T13:17:57;4.80;;;1.88;;
39680;SDS011;26327;42.550;23.120;2024-03-07T13:20:22;4.53;;;1.30;;
39680;SDS011;26327;42.550;23.120;2024-03-07T13:22:51;1.25;;;0.60;;
39680;SDS011;26327;42.550;23.120;2024-03-07T13:25:22;1.80;;;0.77;;
39680;SDS011;26327;42.550;23.120;2024-03-07T13:27:52;3.55;;;1.00;;
39680;SDS011;26327;42.550;23.120;2024-03-07T13:30:22;3.00;;;0.85;;
39680;SDS011;26327;42.550;23.120;2024-03-07T13:32:52;30.02;;;14.30;;
39680;SDS011;26327;42.550;23.120;2024-03-07T13:35:18;42.38;;;20.90;;
39680;SDS011;26327;42.550;23.120;2024-03-07T13:37:45;22.83;;;12.63;;
39680;SDS011;26327;42.550;23.120;2024-03-07T13:40:12;12.80;;;5.68;;
39680;SDS011;26327;42.550;23.120;2024-03-07T13:45:20;4.50;;;1.83;;
39680;SDS011;26327;42.550;23.120;2024-03-07T13:47:47;3.05;;;1.08;;
39680;SDS011;26327;42.550;23.120;2024-03-07T13:50:17;3.92;;;1.10;;
39680;SDS011;26327;42.550;23.120;2024-03-07T13:52:50;5.07;;;1.85;;
39680;SDS011;26327;42.550;23.120;2024-03-07T14:20:56;3.58;;;2.22;;
39680;SDS011;26327;42.550;23.120;2024-03-07T14:23:41;5.32;;;1.70;;
39680;SDS011;26327;42.550;23.120;2024-03-07T14:32:11;10.45;;;5.68;;
39680;SDS011;26327;42.550;23.120;2024-03-07T14:34:49;9.70;;;5.38;;
39680;SDS011;26327;42.550;23.120;2024-03-07T14:37:23;4.13;;;2.45;;
39680;SDS011;26327;42.550;23.120;2024-03-07T14:39:55;11.98;;;5.45;;
39680;SDS011;26327;42.550;23.120;2024-03-07T14:42:35;11.52;;;7.07;;
39680;SDS011;26327;42.550;23.120;2024-03-07T14:45:07;3.03;;;1.83;;
39680;SDS011;26327;42.550;23.120;2024-03-07T14:47:38;4.22;;;2.75;;
39680;SDS011;26327;42.550;23.120;2024-03-07T14:50:04;8.00;;;3.38;;
39680;SDS011;26327;42.550;23.120;2024-03-07T14:52:35;8.77;;;5.88;;
39680;SDS011;26327;42.550;23.120;2024-03-07T14:55:05;8.50;;;5.38;;
39680;SDS011;26327;42.550;23.120;2024-03-07T14:57:33;7.55;;;4.28;;
39680;SDS011;26327;42.550;23.120;2024-03-07T14:59:58;5.13;;;2.60;;
39680;SDS011;26327;42.550;23.120;2024-03-07T15:02:23;4.35;;;2.30;;
39680;SDS011;26327;42.550;23.120;2024-03-07T15:04:49;5.50;;;3.08;;
39680;SDS011;26327;42.550;23.120;2024-03-07T15:07:14;5.10;;;3.53;;
39680;SDS011;26327;42.550;23.120;2024-03-07T15:09:40;8.50;;;4.95;;
39680;SDS011;26327;42.550;23.120;2024-03-07T15:12:05;7.68;;;4.07;;
39680;SDS011;26327;42.550;23.120;2024-03-07T15:14:32;4.53;;;2.80;;
39680;SDS011;26327;42.550;23.120;2024-03-07T15:16:57;4.40;;;3.05;;
39680;SDS011;26327;42.550;23.120;2024-03-07T15:19:23;5.93;;;3.63;;
39680;SDS011;26327;42.550;23.120;2024-03-07T15:21:48;16.13;;;8.80;;
39680;SDS011;26327;42.550;23.120;2024-03-07T15:24:17;8.07;;;4.30;;